Amarant — CQSF — position and weather

sailwx.info

Track history (hours):
 
Tides and Currents Weather Stations Pressure Air Temp Water Temp Dewpoint Dewpoint Depression Visibility Wind Speed Wind Dir Waves Ship Positions

Amarant

Last reported at 2015-Jul-04 16:31 UTC. Time now 2015-Jul-04 17:00 UTC.
Position N 51°15' E 004°22'.

Length 120 m; draft 7.4 m.

Type: Tanker. MMSI: 255623000.

Date/timePositionNaut miles runAvg speedWind from/ knotsBaromVisibWave heightAir tempDewpointWater temp
2015-Jul-04 16:31N 51°15' E 004°22'0 0.0
2015-Jul-04 15:31N 51°15' E 004°22'0 0.0
2015-Jul-04 14:31N 51°15' E 004°22'0 0.0
2015-Jul-04 13:31N 51°15' E 004°22'0 0.0
2015-Jul-04 12:31N 51°15' E 004°22'0 0.0
2015-Jul-04 11:31N 51°15' E 004°22'0 0.0
2015-Jul-04 10:28N 51°15' E 004°22'0 0.0
2015-Jul-04 09:31N 51°15' E 004°22'0 0.0
2015-Jul-04 08:31N 51°15' E 004°22'0 0.0
2015-Jul-04 07:31N 51°15' E 004°22'0 0.0
2015-Jul-04 06:31N 51°15' E 004°22'0 0.0
2015-Jul-04 05:31N 51°15' E 004°22'0 0.0
2015-Jul-04 04:31N 51°15' E 004°22'0 0.0
2015-Jul-04 03:31N 51°15' E 004°22'0 0.1
2015-Jul-04 02:33N 51°15' E 004°22'4 4.2
2015-Jul-04 01:33N 51°19' E 004°19'2 2.2
2015-Jul-04 00:34N 51°21' E 004°17'0 0.2
2015-Jul-03 23:33N 51°21' E 004°17'6 5.8
2015-Jul-03 22:33N 51°22' E 004°08'7 7.2
2015-Jul-03 21:33N 51°23' E 003°56'9 8.9
2015-Jul-03 20:34N 51°24' E 003°42'8 7.8
2015-Jul-03 19:33N 51°28' E 003°31'9 9.4
2015-Jul-03 18:33N 51°36' E 003°23'9 9.4
2015-Jul-03 17:33N 51°43' E 003°15'3 0.1
2015-Jul-02 16:32N 51°46' E 003°18'0 0.0
2015-Jul-02 15:32N 51°46' E 003°18'0 0.0
2015-Jul-02 14:20N 51°46' E 003°18'0 0.0
2015-Jul-02 13:32N 51°46' E 003°18'0 0.1
2015-Jul-02 08:21N 51°45' E 003°18'1211.3
2015-Jul-02 07:18N 51°57' E 003°19'5811.9
2015-Jul-02 02:24N 52°52' E 003°50'1011.8
2015-Jul-02 01:33N 52°59' E 004°02'1313.2
2015-Jul-02 00:33N 53°08' E 004°19'1413.3
2015-Jul-01 23:32N 53°20' E 004°29'1313.5
2015-Jul-01 22:33N 53°32' E 004°37'1413.0
2015-Jul-01 21:31N 53°45' E 004°45'1212.5
2015-Jul-01 20:32N 53°56' E 004°53'1212.3
2015-Jul-01 19:33N 54°07' E 005°01'1212.2
2015-Jul-01 18:33N 54°18' E 005°12'21512.6
2015-Jul-01 01:30N 57°17' E 008°42'1212.6
2015-Jul-01 00:33N 57°23' E 009°01'1512.4
2015-Jun-30 23:21N 57°31' E 009°24'1312.4
2015-Jun-30 22:20N 57°38' E 009°44'912.2
2015-Jun-30 21:33N 57°42' E 010°00'1311.8
2015-Jun-30 20:26N 57°47' E 010°23'1011.1
2015-Jun-30 19:33N 57°48' E 010°41'1212.0
2015-Jun-30 18:33N 57°42' E 011°00'1312.6
2015-Jun-30 17:33N 57°33' E 011°17'1312.7
2015-Jun-30 16:33N 57°23' E 011°30'1313.1
2015-Jun-30 15:33N 57°10' E 011°38'1313.1
2015-Jun-30 14:33N 56°58' E 011°46'1312.7
2015-Jun-30 13:33N 56°47' E 011°58'8 8.4
2015-Jun-30 12:33N 56°41' E 012°09'1010.2
2015-Jun-30 11:33N 56°31' E 012°15'1413.8
2015-Jun-30 10:33N 56°18' E 012°19'1313.3
2015-Jun-30 09:33N 56°07' E 012°33'1312.6
2015-Jun-30 08:33N 55°56' E 012°44'1212.5
2015-Jun-30 07:33N 55°44' E 012°41'9 9.2
2015-Jun-30 06:33N 55°34' E 012°42'9 8.7
2015-Jun-30 05:33N 55°26' E 012°41'1010.2
2015-Jun-30 04:33N 55°17' E 012°49'1313.1
2015-Jun-30 03:33N 55°15' E 013°11'4012.9
2015-Jun-30 00:30N 55°17' E 014°21'1313.6
2015-Jun-29 23:31N 55°27' E 014°36'1413.3
2015-Jun-29 22:27N 55°34' E 014°58'1313.2
2015-Jun-29 21:27N 55°41' E 015°18'1513.1
2015-Jun-29 20:20N 55°49' E 015°41'1013.1
2015-Jun-29 19:33N 55°54' E 015°56'8712.4
2015-Jun-29 12:33N 57°09' E 017°15'1313.5
2015-Jun-29 11:33N 57°22' E 017°20'1413.5
2015-Jun-29 10:30N 57°36' E 017°26'  
2015-Jun-25 20:17N 57°32' E 017°24'1013.5
2015-Jun-25 19:33N 57°22' E 017°21'1313.3
2015-Jun-25 18:33N 57°09' E 017°15'11112.2
2015-Jun-25 09:27N 55°37' E 015°22'1213.7
2015-Jun-25 08:33N 55°31' E 015°03'1313.4
2015-Jun-25 07:33N 55°25' E 014°43'1413.4
2015-Jun-25 06:31N 55°15' E 014°26'5012.6
2015-Jun-25 02:33N 55°13' E 012°58'1312.9
2015-Jun-25 01:33N 55°19' E 012°38'1312.8
2015-Jun-25 00:33N 55°32' E 012°42'6 6.5
2015-Jun-24 23:33N 55°38' E 012°42'1211.5
2015-Jun-24 22:33N 55°50' E 012°42'1312.8
2015-Jun-24 21:33N 56°02' E 012°39'1313.4
2015-Jun-24 20:33N 56°13' E 012°24'1313.3
2015-Jun-24 19:33N 56°25' E 012°15'1413.5
2015-Jun-24 18:33N 56°38' E 012°09'1313.1
2015-Jun-24 17:33N 56°51' E 012°03'1313.1
2015-Jun-24 16:33N 57°04' E 011°57'  
Track history (hours):
 
Tides and Currents Weather Stations Pressure Air Temp Water Temp Dewpoint Dewpoint Depression Visibility Wind Speed Wind Dir Waves Ship Positions

Amarant

Last reported at 2015-Jul-04 16:31 UTC. Time now 2015-Jul-04 17:00 UTC.
Position N 51°15' E 004°22'.

Length 120 m; draft 7.4 m.

Type: Tanker. MMSI: 255623000.

Date/timePositionNaut miles runAvg speedWind from/ knotsBaromVisibWave heightAir tempDewpointWater temp
2015-Jul-04 16:31N 51°15' E 004°22'0 0.0
2015-Jul-04 15:31N 51°15' E 004°22'0 0.0
2015-Jul-04 14:31N 51°15' E 004°22'0 0.0
2015-Jul-04 13:31N 51°15' E 004°22'0 0.0
2015-Jul-04 12:31N 51°15' E 004°22'0 0.0
2015-Jul-04 11:31N 51°15' E 004°22'0 0.0
2015-Jul-04 10:28N 51°15' E 004°22'0 0.0
2015-Jul-04 09:31N 51°15' E 004°22'0 0.0
2015-Jul-04 08:31N 51°15' E 004°22'0 0.0
2015-Jul-04 07:31N 51°15' E 004°22'0 0.0
2015-Jul-04 06:31N 51°15' E 004°22'0 0.0
2015-Jul-04 05:31N 51°15' E 004°22'0 0.0
2015-Jul-04 04:31N 51°15' E 004°22'0 0.0
2015-Jul-04 03:31N 51°15' E 004°22'0 0.1
2015-Jul-04 02:33N 51°15' E 004°22'4 4.2
2015-Jul-04 01:33N 51°19' E 004°19'2 2.2
2015-Jul-04 00:34N 51°21' E 004°17'0 0.2
2015-Jul-03 23:33N 51°21' E 004°17'6 5.8
2015-Jul-03 22:33N 51°22' E 004°08'7 7.2
2015-Jul-03 21:33N 51°23' E 003°56'9 8.9
2015-Jul-03 20:34N 51°24' E 003°42'8 7.8
2015-Jul-03 19:33N 51°28' E 003°31'9 9.4
2015-Jul-03 18:33N 51°36' E 003°23'9 9.4
2015-Jul-03 17:33N 51°43' E 003°15'3 0.1
2015-Jul-02 16:32N 51°46' E 003°18'0 0.0
2015-Jul-02 15:32N 51°46' E 003°18'0 0.0
2015-Jul-02 14:20N 51°46' E 003°18'0 0.0
2015-Jul-02 13:32N 51°46' E 003°18'0 0.1
2015-Jul-02 08:21N 51°45' E 003°18'1211.3
2015-Jul-02 07:18N 51°57' E 003°19'5811.9
2015-Jul-02 02:24N 52°52' E 003°50'1011.8
2015-Jul-02 01:33N 52°59' E 004°02'1313.2
2015-Jul-02 00:33N 53°08' E 004°19'1413.3
2015-Jul-01 23:32N 53°20' E 004°29'1313.5
2015-Jul-01 22:33N 53°32' E 004°37'1413.0
2015-Jul-01 21:31N 53°45' E 004°45'1212.5
2015-Jul-01 20:32N 53°56' E 004°53'1212.3
2015-Jul-01 19:33N 54°07' E 005°01'1212.2
2015-Jul-01 18:33N 54°18' E 005°12'21512.6
2015-Jul-01 01:30N 57°17' E 008°42'1212.6
2015-Jul-01 00:33N 57°23' E 009°01'1512.4
2015-Jun-30 23:21N 57°31' E 009°24'1312.4
2015-Jun-30 22:20N 57°38' E 009°44'912.2
2015-Jun-30 21:33N 57°42' E 010°00'1311.8
2015-Jun-30 20:26N 57°47' E 010°23'1011.1
2015-Jun-30 19:33N 57°48' E 010°41'1212.0
2015-Jun-30 18:33N 57°42' E 011°00'1312.6
2015-Jun-30 17:33N 57°33' E 011°17'1312.7
2015-Jun-30 16:33N 57°23' E 011°30'1313.1
2015-Jun-30 15:33N 57°10' E 011°38'1313.1
2015-Jun-30 14:33N 56°58' E 011°46'1312.7
2015-Jun-30 13:33N 56°47' E 011°58'8 8.4
2015-Jun-30 12:33N 56°41' E 012°09'1010.2
2015-Jun-30 11:33N 56°31' E 012°15'1413.8
2015-Jun-30 10:33N 56°18' E 012°19'1313.3
2015-Jun-30 09:33N 56°07' E 012°33'1312.6
2015-Jun-30 08:33N 55°56' E 012°44'1212.5
2015-Jun-30 07:33N 55°44' E 012°41'9 9.2
2015-Jun-30 06:33N 55°34' E 012°42'9 8.7
2015-Jun-30 05:33N 55°26' E 012°41'1010.2
2015-Jun-30 04:33N 55°17' E 012°49'1313.1
2015-Jun-30 03:33N 55°15' E 013°11'4012.9
2015-Jun-30 00:30N 55°17' E 014°21'1313.6
2015-Jun-29 23:31N 55°27' E 014°36'1413.3
2015-Jun-29 22:27N 55°34' E 014°58'1313.2
2015-Jun-29 21:27N 55°41' E 015°18'1513.1
2015-Jun-29 20:20N 55°49' E 015°41'1013.1
2015-Jun-29 19:33N 55°54' E 015°56'8712.4
2015-Jun-29 12:33N 57°09' E 017°15'1313.5
2015-Jun-29 11:33N 57°22' E 017°20'1413.5
2015-Jun-29 10:30N 57°36' E 017°26'  
2015-Jun-25 20:17N 57°32' E 017°24'1013.5
2015-Jun-25 19:33N 57°22' E 017°21'1313.3
2015-Jun-25 18:33N 57°09' E 017°15'11112.2
2015-Jun-25 09:27N 55°37' E 015°22'1213.7
2015-Jun-25 08:33N 55°31' E 015°03'1313.4
2015-Jun-25 07:33N 55°25' E 014°43'1413.4
2015-Jun-25 06:31N 55°15' E 014°26'5012.6
2015-Jun-25 02:33N 55°13' E 012°58'1312.9
2015-Jun-25 01:33N 55°19' E 012°38'1312.8
2015-Jun-25 00:33N 55°32' E 012°42'6 6.5
2015-Jun-24 23:33N 55°38' E 012°42'1211.5
2015-Jun-24 22:33N 55°50' E 012°42'1312.8
2015-Jun-24 21:33N 56°02' E 012°39'1313.4
2015-Jun-24 20:33N 56°13' E 012°24'1313.3
2015-Jun-24 19:33N 56°25' E 012°15'1413.5
2015-Jun-24 18:33N 56°38' E 012°09'1313.1
2015-Jun-24 17:33N 56°51' E 012°03'1313.1
2015-Jun-24 16:33N 57°04' E 011°57'  

Dump ship's entire track history